createdAt,value
2018-12-27T00:01:46.276Z,84.13
2018-12-27T00:04:18.299Z,84.10
2018-12-27T00:06:50.293Z,84.46
2018-12-27T00:09:22.238Z,84.49
2018-12-27T00:11:54.215Z,84.39
2018-12-27T00:14:26.227Z,84.05
2018-12-27T00:16:58.244Z,83.67
2018-12-27T00:19:30.348Z,83.81
2018-12-27T00:22:02.360Z,83.57
2018-12-27T00:24:34.323Z,83.22
2018-12-27T00:27:06.346Z,82.64
2018-12-27T00:29:38.302Z,82.84
2018-12-27T00:32:10.326Z,82.86
2018-12-27T00:34:42.292Z,82.98
2018-12-27T00:37:14.303Z,82.85
2018-12-27T00:39:46.305Z,82.65
2018-12-27T00:42:18.305Z,82.49
2018-12-27T00:44:50.280Z,82.84
2018-12-27T00:47:22.295Z,82.79
2018-12-27T00:49:54.273Z,82.70
2018-12-27T00:52:26.283Z,82.73
2018-12-27T00:54:58.267Z,82.59
2018-12-27T00:57:30.283Z,82.58
2018-12-27T01:00:02.276Z,82.56
2018-12-27T01:02:34.298Z,82.64
2018-12-27T01:05:06.286Z,82.60
2018-12-27T01:07:38.288Z,81.80
2018-12-27T01:10:10.258Z,82.21
2018-12-27T01:12:42.240Z,82.34
2018-12-27T01:15:14.292Z,82.01
2018-12-27T01:17:46.306Z,82.25
2018-12-27T01:20:18.285Z,82.15
2018-12-27T01:22:50.287Z,81.99
2018-12-27T01:25:22.231Z,81.87
2018-12-27T01:27:54.233Z,82.00
2018-12-27T01:30:26.196Z,81.94
2018-12-27T01:32:58.197Z,81.92
2018-12-27T01:35:30.168Z,81.79
2018-12-27T01:38:02.158Z,81.55
2018-12-27T01:40:34.120Z,80.89
2018-12-27T01:43:06.149Z,81.68
2018-12-27T01:45:38.147Z,81.40
2018-12-27T01:48:10.142Z,81.75
2018-12-27T01:50:42.122Z,81.75
2018-12-27T01:53:14.107Z,81.69
2018-12-27T01:55:46.073Z,81.54
2018-12-27T01:58:18.059Z,81.53
2018-12-27T02:00:50.073Z,81.47
2018-12-27T02:03:26.408Z,81.32
2018-12-27T02:05:55.927Z,81.32
2018-12-27T02:08:27.877Z,81.00
2018-12-27T02:10:59.900Z,80.89
2018-12-27T02:13:31.876Z,80.91
2018-12-27T02:16:03.883Z,81.08
2018-12-27T02:18:35.841Z,81.10
2018-12-27T02:21:07.863Z,81.34
2018-12-27T02:23:39.820Z,81.32
2018-12-27T02:26:11.822Z,81.68
2018-12-27T02:28:43.780Z,81.58
2018-12-27T02:31:15.784Z,81.46
2018-12-27T02:33:47.729Z,81.04
2018-12-27T02:36:19.720Z,80.99
2018-12-27T02:38:51.708Z,81.39
2018-12-27T02:41:23.713Z,81.06
2018-12-27T02:43:55.697Z,81.08
2018-12-27T02:46:27.674Z,81.23
2018-12-27T02:52:49.730Z,81.37
2018-12-27T02:55:21.710Z,81.20
2018-12-27T02:57:53.701Z,81.09
2018-12-27T03:00:25.687Z,81.26
2018-12-27T03:02:57.673Z,81.61
2018-12-27T03:05:29.635Z,81.87
2018-12-27T03:08:01.637Z,81.72
2018-12-27T03:10:33.615Z,82.05
2018-12-27T03:13:05.602Z,81.62
2018-12-27T03:15:37.579Z,81.80
2018-12-27T03:18:09.648Z,81.75
2018-12-27T03:20:41.612Z,81.33
2018-12-27T03:23:13.695Z,81.75
2018-12-27T03:25:45.677Z,81.12
2018-12-27T03:28:17.677Z,81.32
2018-12-27T03:30:49.636Z,81.52
2018-12-27T03:33:21.626Z,82.02
2018-12-27T03:35:53.612Z,82.29
2018-12-27T03:38:25.607Z,81.95
2018-12-27T03:40:57.566Z,82.06
2018-12-27T03:43:29.570Z,81.52
2018-12-27T03:46:01.594Z,82.06
2018-12-27T03:48:33.552Z,81.95
2018-12-27T03:51:05.531Z,81.29
2018-12-27T03:53:37.515Z,81.61
2018-12-27T03:56:11.810Z,82.07
2018-12-27T03:58:43.787Z,82.33
2018-12-27T04:01:15.768Z,82.63
2018-12-27T04:03:47.709Z,83.02
2018-12-27T04:06:19.693Z,83.17
2018-12-27T04:08:51.672Z,83.24
2018-12-27T04:11:23.676Z,83.28
2018-12-27T04:13:55.640Z,83.42
2018-12-27T04:16:27.630Z,83.49
2018-12-27T04:18:59.577Z,83.44
2018-12-27T04:21:31.555Z,83.41
2018-12-27T04:24:03.630Z,83.19
2018-12-27T04:26:35.602Z,82.53
2018-12-27T04:29:07.589Z,82.63
2018-12-27T04:31:39.566Z,82.81
2018-12-27T04:34:11.619Z,83.01
2018-12-27T04:36:43.618Z,83.31
2018-12-27T04:39:15.593Z,83.01
2018-12-27T04:42:28.388Z,82.83
2018-12-27T04:45:00.347Z,82.86
2018-12-27T04:47:32.327Z,82.68
2018-12-27T04:50:04.487Z,82.63
2018-12-27T04:52:36.468Z,82.81
2018-12-27T04:55:08.442Z,82.84
2018-12-27T04:57:40.442Z,82.59
2018-12-27T05:00:12.404Z,81.12
2018-12-27T05:02:44.405Z,81.51
2018-12-27T05:05:16.357Z,81.78
2018-12-27T05:07:48.363Z,81.80
2018-12-27T05:10:20.345Z,81.65
2018-12-27T05:12:52.329Z,81.68
2018-12-27T05:15:24.315Z,81.28
2018-12-27T05:17:56.300Z,81.44
2018-12-27T05:20:28.279Z,81.40
2018-12-27T05:23:00.273Z,81.42
2018-12-27T05:25:32.266Z,81.51
2018-12-27T05:28:04.273Z,81.14
2018-12-27T05:30:55.738Z,81.24
2018-12-27T05:33:27.689Z,81.25
2018-12-27T05:35:59.676Z,81.18
2018-12-27T05:38:31.632Z,80.99
2018-12-27T05:41:03.602Z,80.25
2018-12-27T05:43:55.132Z,81.01
2018-12-27T05:46:27.117Z,81.21
2018-12-27T05:48:59.110Z,81.08
2018-12-27T05:51:31.085Z,80.81
2018-12-27T05:54:03.033Z,81.08
2018-12-27T05:56:35.029Z,81.07
2018-12-27T05:59:06.990Z,81.17
2018-12-27T06:01:38.974Z,81.15
2018-12-27T06:04:11.018Z,81.19
2018-12-27T06:06:43.004Z,81.22
2018-12-27T06:09:14.969Z,81.25
2018-12-27T06:11:46.942Z,81.28
2018-12-27T06:14:18.888Z,80.96
2018-12-27T06:16:50.851Z,80.47
2018-12-27T06:19:22.831Z,80.54
2018-12-27T06:21:54.828Z,80.31
2018-12-27T06:24:26.801Z,80.19
2018-12-27T06:26:58.789Z,80.29
2018-12-27T06:29:30.753Z,80.26
2018-12-27T06:32:02.760Z,80.08
2018-12-27T06:34:41.127Z,80.11
2018-12-27T06:37:09.220Z,80.38
2018-12-27T06:39:41.178Z,80.73
2018-12-27T06:42:13.166Z,80.62
2018-12-27T06:44:45.148Z,80.11
2018-12-27T06:47:17.268Z,80.39
2018-12-27T06:49:49.240Z,80.75
2018-12-27T06:52:21.225Z,80.46
2018-12-27T06:54:53.173Z,80.70
2018-12-27T06:57:25.220Z,80.52
2018-12-27T06:59:57.176Z,80.76
2018-12-27T07:02:29.165Z,80.87
2018-12-27T07:05:01.145Z,80.65
2018-12-27T07:07:33.148Z,80.67
2018-12-27T07:10:05.113Z,80.67
2018-12-27T07:12:37.142Z,80.77
2018-12-27T07:15:09.158Z,80.44
2018-12-27T07:17:41.153Z,80.23
2018-12-27T07:20:13.109Z,80.10
2018-12-27T07:22:45.097Z,80.44
2018-12-27T07:25:17.068Z,80.23
2018-12-27T07:27:49.067Z,79.90
2018-12-27T07:30:21.025Z,80.49
2018-12-27T07:32:53.023Z,79.66
2018-12-27T07:35:25.010Z,80.41
2018-12-27T07:37:57.014Z,80.22
2018-12-27T07:40:29.061Z,80.62
2018-12-27T07:43:01.015Z,80.41
2018-12-27T07:45:33.061Z,80.86
2018-12-27T07:48:05.012Z,80.90
2018-12-27T07:50:37.026Z,80.99
2018-12-27T07:53:08.954Z,81.08
2018-12-27T07:55:40.953Z,80.98
2018-12-27T07:58:12.940Z,81.12
2018-12-27T08:00:44.944Z,80.98
2018-12-27T08:03:16.922Z,80.58
2018-12-27T08:05:48.907Z,80.10
2018-12-27T08:08:20.874Z,79.67
2018-12-27T08:10:52.874Z,80.05
2018-12-27T08:13:24.873Z,80.39
2018-12-27T08:15:56.880Z,80.24
2018-12-27T08:18:28.859Z,80.02
2018-12-27T08:21:00.871Z,80.12
2018-12-27T08:23:32.814Z,80.07
2018-12-27T08:26:04.806Z,80.26
2018-12-27T08:28:36.800Z,79.46
2018-12-27T08:31:08.793Z,79.63
2018-12-27T08:33:40.795Z,79.65
2018-12-27T08:36:12.786Z,79.21
2018-12-27T08:38:44.782Z,79.21
2018-12-27T08:41:16.782Z,79.41
2018-12-27T08:43:49.334Z,79.06
2018-12-27T08:46:21.327Z,78.71
2018-12-27T08:48:53.317Z,78.69
2018-12-27T08:51:25.319Z,78.46
2018-12-27T08:53:57.313Z,78.30
2018-12-27T08:56:29.420Z,78.57
2018-12-27T08:59:01.470Z,78.78
2018-12-27T09:01:33.444Z,77.98
2018-12-27T09:04:05.482Z,77.96
2018-12-27T09:06:37.471Z,77.97
2018-12-27T09:09:09.481Z,77.90
2018-12-27T09:11:41.451Z,77.38
2018-12-27T09:14:13.440Z,76.43
2018-12-27T09:16:45.476Z,76.57
2018-12-27T09:19:17.478Z,76.60
2018-12-27T09:21:49.469Z,76.01
2018-12-27T09:24:21.463Z,75.84
2018-12-27T09:26:53.463Z,76.12
2018-12-27T09:29:25.474Z,75.91
2018-12-27T09:31:57.459Z,75.65
2018-12-27T09:34:29.482Z,75.63
2018-12-27T09:37:01.464Z,76.36
2018-12-27T09:39:33.484Z,76.78
2018-12-27T09:42:05.466Z,76.98
2018-12-27T09:44:37.435Z,76.54
2018-12-27T09:47:09.427Z,76.72
2018-12-27T09:49:41.457Z,76.31
2018-12-27T09:52:13.452Z,76.75
2018-12-27T09:54:45.445Z,77.11
2018-12-27T09:57:17.438Z,77.73
2018-12-27T09:59:49.875Z,77.69
2018-12-27T10:02:21.833Z,77.52
2018-12-27T10:04:53.821Z,77.40
2018-12-27T10:07:25.813Z,77.35
2018-12-27T10:09:57.821Z,77.42
2018-12-27T10:12:29.827Z,77.27
2018-12-27T10:15:01.889Z,76.66
2018-12-27T10:17:33.836Z,75.86
2018-12-27T10:20:06.490Z,76.08
2018-12-27T10:22:38.479Z,76.15
2018-12-27T10:25:10.456Z,76.42
2018-12-27T10:27:42.430Z,76.21
2018-12-27T10:30:14.459Z,76.17
2018-12-27T10:32:46.448Z,75.88
2018-12-27T10:35:18.647Z,74.35
2018-12-27T10:37:50.689Z,74.60
2018-12-27T10:40:22.698Z,73.97
2018-12-27T10:42:54.868Z,73.67
2018-12-27T10:45:27.045Z,73.41
2018-12-27T10:47:59.048Z,73.87
2018-12-27T10:50:31.017Z,74.20
2018-12-27T10:53:02.996Z,73.84
2018-12-27T10:55:35.030Z,73.64
2018-12-27T10:58:07.071Z,73.97
2018-12-27T11:00:39.103Z,74.35
2018-12-27T11:03:11.106Z,75.01
2018-12-27T11:05:48.588Z,74.90
2018-12-27T11:08:16.996Z,75.00
2018-12-27T11:10:48.982Z,75.84
2018-12-27T11:13:20.976Z,76.14
2018-12-27T11:15:52.932Z,74.60
2018-12-27T11:18:24.949Z,74.91
2018-12-27T11:20:56.904Z,74.89
2018-12-27T11:23:28.913Z,74.75
2018-12-27T11:26:00.907Z,75.15
2018-12-27T11:28:32.907Z,75.42
2018-12-27T11:31:04.889Z,75.74
2018-12-27T11:33:36.905Z,76.16
2018-12-27T11:36:08.905Z,76.35
2018-12-27T11:38:40.934Z,76.53
2018-12-27T11:41:12.947Z,76.35
2018-12-27T11:43:44.984Z,75.61
2018-12-27T11:46:17.074Z,75.55
2018-12-27T11:48:49.089Z,74.56
2018-12-27T11:51:21.074Z,73.97
2018-12-27T11:53:53.064Z,73.81
2018-12-27T11:56:25.062Z,73.78
2018-12-27T11:58:57.153Z,74.10
2018-12-27T12:01:29.190Z,74.52
2018-12-27T12:04:01.210Z,74.89
2018-12-27T12:06:33.314Z,74.57
2018-12-27T12:09:06.074Z,74.45
2018-12-27T12:11:38.091Z,74.29
2018-12-27T12:14:10.116Z,73.68
2018-12-27T12:16:42.090Z,73.36
2018-12-27T12:19:14.288Z,73.63
2018-12-27T12:21:46.286Z,73.90
2018-12-27T12:24:18.262Z,73.92
2018-12-27T12:26:50.261Z,73.94
2018-12-27T12:29:22.630Z,74.10
2018-12-27T12:31:54.726Z,74.05
2018-12-27T12:34:26.728Z,74.07
2018-12-27T12:36:58.867Z,74.42
2018-12-27T12:39:30.907Z,74.40
2018-12-27T12:42:02.975Z,74.45
2018-12-27T12:44:34.959Z,74.15
2018-12-27T12:47:07.007Z,74.36
2018-12-27T12:49:39.010Z,74.50
2018-12-27T12:52:11.086Z,74.63
2018-12-27T12:54:43.089Z,74.62
2018-12-27T12:57:15.128Z,74.13
2018-12-27T12:59:47.165Z,73.89
2018-12-27T13:02:19.180Z,74.06
2018-12-27T13:04:51.174Z,74.24
2018-12-27T13:07:23.182Z,74.13
2018-12-27T13:09:55.177Z,74.61
2018-12-27T13:12:27.198Z,74.96
2018-12-27T13:14:59.247Z,75.33
2018-12-27T13:17:31.242Z,75.61
2018-12-27T13:20:03.700Z,75.61
2018-12-27T13:22:35.762Z,75.90
2018-12-27T13:25:07.713Z,76.01
2018-12-27T13:27:39.686Z,76.02
2018-12-27T13:30:11.695Z,76.11
2018-12-27T13:32:43.684Z,76.17
2018-12-27T13:35:15.727Z,76.01
2018-12-27T13:37:47.742Z,75.95
2018-12-27T13:40:19.736Z,75.87
2018-12-27T13:42:51.796Z,75.50
2018-12-27T13:45:23.797Z,75.70
2018-12-27T13:47:55.782Z,75.79
2018-12-27T13:50:27.773Z,75.81
2018-12-27T13:52:59.755Z,75.97
2018-12-27T13:55:31.797Z,76.07
2018-12-27T13:58:05.101Z,76.08
2018-12-27T14:00:37.284Z,76.11
2018-12-27T14:03:09.249Z,75.90
2018-12-27T14:05:41.271Z,76.09
2018-12-27T14:08:13.270Z,76.06
2018-12-27T14:10:45.282Z,76.04
2018-12-27T14:13:17.276Z,76.17
2018-12-27T14:15:49.318Z,76.28
2018-12-27T14:18:21.323Z,76.28
2018-12-27T14:20:53.305Z,76.30
2018-12-27T14:23:25.288Z,76.40
2018-12-27T14:25:57.329Z,76.49
2018-12-27T14:28:29.312Z,76.47
2018-12-27T14:31:01.318Z,76.56
2018-12-27T14:33:33.305Z,76.46
2018-12-27T14:36:05.317Z,76.60
2018-12-27T14:38:37.323Z,76.87
2018-12-27T14:41:09.336Z,77.14
2018-12-27T14:43:41.305Z,77.39
2018-12-27T14:46:13.337Z,77.50
2018-12-27T14:48:45.375Z,77.68
2018-12-27T14:51:17.336Z,77.81
2018-12-27T14:53:49.368Z,77.95
2018-12-27T14:56:21.356Z,78.25
2018-12-27T14:58:53.447Z,78.29
2018-12-27T15:01:25.431Z,78.39
2018-12-27T15:03:57.409Z,78.35
2018-12-27T15:06:29.427Z,78.50
2018-12-27T15:09:01.410Z,79.04
2018-12-27T15:11:33.393Z,79.26
2018-12-27T15:14:05.404Z,79.48
2018-12-27T15:16:37.379Z,79.69
2018-12-27T15:19:09.366Z,79.81
2018-12-27T15:21:41.357Z,80.08
2018-12-27T15:24:13.403Z,80.19
2018-12-27T15:26:45.391Z,80.38
2018-12-27T15:29:17.428Z,80.44
2018-12-27T15:31:49.403Z,80.69
2018-12-27T15:34:21.450Z,80.50
2018-12-27T15:36:54.475Z,80.58
2018-12-27T15:39:26.901Z,81.04
2018-12-27T15:41:58.918Z,81.20
2018-12-27T15:44:31.022Z,81.27
2018-12-27T15:47:03.018Z,81.05
2018-12-27T15:49:35.103Z,81.06
2018-12-27T15:52:07.080Z,81.19
2018-12-27T15:54:39.205Z,81.18
2018-12-27T15:57:11.259Z,81.35
2018-12-27T15:59:43.453Z,81.56
2018-12-27T16:02:16.640Z,81.74
2018-12-27T16:04:48.708Z,82.05
2018-12-27T16:07:20.712Z,82.14
2018-12-27T16:09:52.735Z,82.15
2018-12-27T16:12:24.803Z,82.19
2018-12-27T16:14:56.831Z,82.14
2018-12-27T16:17:28.847Z,82.24
2018-12-27T16:20:00.869Z,82.49
2018-12-27T16:22:32.944Z,82.61
2018-12-27T16:25:05.035Z,82.62
2018-12-27T16:27:37.074Z,82.61
2018-12-27T16:30:09.093Z,82.65
2018-12-27T16:32:42.415Z,82.62
2018-12-27T16:35:14.542Z,82.55
2018-12-27T16:37:46.596Z,82.57
2018-12-27T16:40:18.628Z,82.65
2018-12-27T16:42:50.651Z,82.61
2018-12-27T16:45:22.678Z,82.72
2018-12-27T16:47:55.817Z,82.72
2018-12-27T16:50:27.817Z,82.80
2018-12-27T16:52:59.844Z,82.79
2018-12-27T16:55:31.857Z,82.91
2018-12-27T16:58:03.960Z,82.80
2018-12-27T17:00:36.228Z,82.72
2018-12-27T17:03:08.313Z,82.95
2018-12-27T17:05:40.326Z,82.90
2018-12-27T17:08:12.338Z,82.80
2018-12-27T17:10:44.378Z,82.95
2018-12-27T17:13:16.384Z,83.03
2018-12-27T17:15:48.522Z,83.00
2018-12-27T17:18:20.641Z,83.05
2018-12-27T17:20:52.676Z,83.08
2018-12-27T17:23:24.742Z,83.09
2018-12-27T17:25:56.718Z,83.06
2018-12-27T17:28:28.797Z,83.33
2018-12-27T17:31:00.846Z,83.55
2018-12-27T17:33:32.812Z,83.38
2018-12-27T17:36:04.888Z,83.41
2018-12-27T17:38:36.989Z,83.45
2018-12-27T17:41:09.086Z,83.34
2018-12-27T17:43:41.074Z,83.38
2018-12-27T17:46:13.148Z,83.67
2018-12-27T17:48:45.163Z,83.74
2018-12-27T17:51:17.244Z,83.72
2018-12-27T17:53:49.259Z,83.97
2018-12-27T17:56:21.343Z,84.17
2018-12-27T17:58:53.333Z,83.98
2018-12-27T18:01:26.451Z,84.15
2018-12-27T18:03:58.557Z,84.35
2018-12-27T18:06:33.529Z,84.66
2018-12-27T18:09:06.800Z,84.73
2018-12-27T18:11:38.818Z,84.87
2018-12-27T18:14:10.805Z,85.01
2018-12-27T18:16:42.847Z,85.05
2018-12-27T18:19:14.935Z,85.19
2018-12-27T18:21:46.963Z,85.01
2018-12-27T18:24:18.988Z,84.69
2018-12-27T18:26:51.249Z,84.75
2018-12-27T18:29:23.279Z,84.77
2018-12-27T18:31:55.344Z,84.81
2018-12-27T18:34:27.346Z,84.67
2018-12-27T18:37:00.785Z,84.90
2018-12-27T18:39:32.847Z,84.96
2018-12-27T18:42:04.945Z,85.15
2018-12-27T18:44:38.075Z,85.23
2018-12-27T18:47:10.229Z,85.32
2018-12-27T18:49:42.220Z,85.23
2018-12-27T18:52:14.408Z,85.22
2018-12-27T18:54:47.821Z,84.99
2018-12-27T18:57:19.886Z,84.85
2018-12-27T18:59:51.940Z,84.97
2018-12-27T19:02:24.091Z,84.90
2018-12-27T19:04:56.125Z,85.04
2018-12-27T19:07:28.198Z,85.18
2018-12-27T19:10:00.262Z,85.34
2018-12-27T19:13:03.833Z,85.43
2018-12-27T19:15:47.380Z,85.36
2018-12-27T19:18:25.357Z,85.58
2018-12-27T19:21:45.176Z,85.41
2018-12-27T19:24:17.332Z,85.47
2018-12-27T19:26:51.189Z,85.68
2018-12-27T19:29:24.157Z,85.57
2018-12-27T19:31:56.155Z,85.33
2018-12-27T19:34:28.160Z,85.59
2018-12-27T19:37:00.287Z,85.57
2018-12-27T19:39:32.326Z,85.58
2018-12-27T19:42:04.467Z,85.60
2018-12-27T19:44:36.548Z,85.47
2018-12-27T19:47:08.661Z,85.58
2018-12-27T19:49:41.850Z,85.64
2018-12-27T19:52:13.923Z,85.66
2018-12-27T19:54:45.968Z,85.64
2018-12-27T19:57:19.789Z,85.30
2018-12-27T19:59:52.974Z,85.39
2018-12-27T20:02:25.013Z,84.85
2018-12-27T20:04:57.121Z,85.12
2018-12-27T20:07:29.147Z,85.36
2018-12-27T20:10:01.265Z,85.57
2018-12-27T20:12:33.307Z,85.62
2018-12-27T20:15:05.675Z,85.56
2018-12-27T20:17:37.847Z,85.58
2018-12-27T20:20:09.979Z,85.64
2018-12-27T20:22:43.128Z,85.33
2018-12-27T20:25:15.261Z,84.93
2018-12-27T20:27:47.876Z,84.85
2018-12-27T20:30:19.991Z,84.89
2018-12-27T20:32:52.163Z,85.18
2018-12-27T20:35:24.221Z,84.98
2018-12-27T20:37:56.303Z,84.87
2018-12-27T20:40:28.314Z,85.20
2018-12-27T20:43:00.354Z,85.28
2018-12-27T20:45:32.427Z,85.32
2018-12-27T20:48:04.513Z,85.42
2018-12-27T20:50:36.656Z,85.44
2018-12-27T20:53:10.557Z,85.45
2018-12-27T20:55:42.735Z,85.24
2018-12-27T20:58:14.980Z,85.44
2018-12-27T21:00:47.131Z,85.67
2018-12-27T21:03:19.404Z,85.47
2018-12-27T21:05:51.607Z,85.31
2018-12-27T21:08:24.036Z,85.26
2018-12-27T21:10:56.143Z,85.35
2018-12-27T21:13:28.263Z,85.20
2018-12-27T21:16:00.289Z,85.36
2018-12-27T21:18:32.409Z,85.25
2018-12-27T21:21:04.755Z,85.27
2018-12-27T21:23:36.961Z,84.96
2018-12-27T21:26:09.218Z,84.81
2018-12-27T21:28:41.239Z,84.92
2018-12-27T21:31:15.095Z,85.00
2018-12-27T21:33:47.353Z,84.88
2018-12-27T21:36:19.439Z,85.03
2018-12-27T21:38:51.478Z,84.86
2018-12-27T21:41:23.578Z,85.19
2018-12-27T21:43:55.760Z,85.12
2018-12-27T21:46:29.796Z,85.28
2018-12-27T21:49:01.863Z,85.44
2018-12-27T21:51:33.930Z,85.43
2018-12-27T21:54:05.956Z,85.21
2018-12-27T21:56:38.028Z,84.69
2018-12-27T21:59:10.181Z,84.40
2018-12-27T22:01:42.225Z,84.71
2018-12-27T22:04:14.334Z,84.68
2018-12-27T22:06:46.527Z,84.62
2018-12-27T22:09:18.629Z,84.54
2018-12-27T22:11:50.890Z,84.54
2018-12-27T22:14:22.891Z,84.64
2018-12-27T22:16:54.964Z,84.38
2018-12-27T22:19:27.111Z,84.49
2018-12-27T22:21:59.349Z,84.56
2018-12-27T22:24:32.602Z,84.96
2018-12-27T22:27:05.807Z,84.98
2018-12-27T22:29:37.889Z,84.97
2018-12-27T22:32:09.919Z,85.00
2018-12-27T22:34:41.967Z,84.91
2018-12-27T22:37:13.996Z,85.05
2018-12-27T22:39:46.047Z,85.20
2018-12-27T22:42:18.067Z,84.88
2018-12-27T22:44:51.950Z,85.16
2018-12-27T22:47:23.977Z,85.06
2018-12-27T22:49:56.015Z,85.02
2018-12-27T22:52:28.041Z,85.45
2018-12-27T22:55:00.096Z,85.12
2018-12-27T22:57:32.255Z,85.37
2018-12-27T23:00:07.886Z,85.50
2018-12-27T23:02:39.882Z,85.24
2018-12-27T23:05:11.923Z,84.88
2018-12-27T23:07:43.944Z,85.20
2018-12-27T23:10:15.955Z,85.20
2018-12-27T23:12:48.012Z,84.78
2018-12-27T23:15:20.064Z,84.95
2018-12-27T23:17:52.060Z,85.22
2018-12-27T23:20:24.207Z,85.25
2018-12-27T23:22:56.220Z,85.20
2018-12-27T23:25:28.251Z,84.97
2018-12-27T23:28:00.285Z,85.19
2018-12-27T23:30:32.388Z,85.37
2018-12-27T23:33:04.368Z,85.09
2018-12-27T23:35:36.712Z,84.95
2018-12-27T23:38:08.920Z,84.79
2018-12-27T23:40:41.019Z,84.48
2018-12-27T23:43:12.987Z,84.36
2018-12-27T23:45:45.004Z,84.47
2018-12-27T23:48:17.076Z,84.84
2018-12-27T23:50:49.265Z,85.15
2018-12-27T23:53:21.237Z,85.22
2018-12-27T23:55:53.310Z,85.47
2018-12-27T23:58:25.369Z,85.95
